AAL899 KLAX-KPHX
Flight info
| Callsign | AAL899 |
|---|---|
| Flight time | 0h 58m |
| Altitude | 35000 |
| Route | DOTSS2 CNERY BLH HYDRR1 |
| Aircraft | A321/M-SDE3FGHIRWY/LB1 |
Departure
| Time | 2026-04-23 21:54 |
|---|---|
| Airport | Los Angeles International Airport (KLAX) |
Arrival
| Time | 2026-04-23 22:53 |
|---|---|
| Airport | Phoenix Sky Harbor International Airport (KPHX) |
| Time | Latitude | Longitude | Altitude | Speed | Heading |
|---|---|---|---|---|---|
| 2026-04-23 21:18 | 33.94102 | -118.40753 | 121 ft | 0 kts | 65° |
| 2026-04-23 21:36 | 33.94097 | -118.40767 | 122 ft | 3 kts | 70° |
| 2026-04-23 21:36 | 33.94091 | -118.40791 | 123 ft | 3 kts | 83° |
| 2026-04-23 21:37 | 33.94091 | -118.40814 | 123 ft | 3 kts | 108° |
| 2026-04-23 21:37 | 33.94099 | -118.40831 | 121 ft | 3 kts | 155° |
| 2026-04-23 21:37 | 33.94108 | -118.40835 | 122 ft | 1 kts | 173° |
| 2026-04-23 21:37 | 33.94110 | -118.40836 | 123 ft | 0 kts | 173° |
| 2026-04-23 21:47 | 33.94103 | -118.40835 | 126 ft | 3 kts | 173° |
| 2026-04-23 21:47 | 33.94066 | -118.40829 | 126 ft | 6 kts | 173° |
| 2026-04-23 21:48 | 33.94020 | -118.40822 | 123 ft | 7 kts | 173° |
| 2026-04-23 21:48 | 33.93967 | -118.40815 | 124 ft | 8 kts | 173° |
| 2026-04-23 21:48 | 33.93908 | -118.40801 | 123 ft | 9 kts | 155° |
| 2026-04-23 21:48 | 33.93858 | -118.40750 | 123 ft | 10 kts | 141° |
| 2026-04-23 21:49 | 33.93814 | -118.40686 | 124 ft | 10 kts | 106° |
| 2026-04-23 21:49 | 33.93817 | -118.40596 | 126 ft | 11 kts | 82° |
| 2026-04-23 21:49 | 33.93829 | -118.40477 | 123 ft | 17 kts | 83° |
| 2026-04-23 21:49 | 33.93844 | -118.40332 | 126 ft | 18 kts | 84° |
| 2026-04-23 21:50 | 33.93859 | -118.40184 | 126 ft | 18 kts | 83° |
| 2026-04-23 21:50 | 33.93875 | -118.40032 | 126 ft | 19 kts | 83° |
| 2026-04-23 21:50 | 33.93891 | -118.39876 | 126 ft | 19 kts | 83° |
| 2026-04-23 21:50 | 33.93907 | -118.39716 | 126 ft | 20 kts | 83° |
| 2026-04-23 21:51 | 33.93923 | -118.39552 | 126 ft | 20 kts | 83° |
| 2026-04-23 21:51 | 33.93941 | -118.39384 | 121 ft | 20 kts | 82° |
| 2026-04-23 21:51 | 33.93959 | -118.39214 | 125 ft | 21 kts | 83° |
| 2026-04-23 21:51 | 33.93976 | -118.39040 | 126 ft | 21 kts | 83° |
| 2026-04-23 21:52 | 33.93994 | -118.38863 | 126 ft | 21 kts | 83° |
| 2026-04-23 21:52 | 33.94012 | -118.38682 | 122 ft | 22 kts | 83° |
| 2026-04-23 21:52 | 33.94031 | -118.38499 | 125 ft | 22 kts | 82° |
| 2026-04-23 21:52 | 33.94050 | -118.38313 | 124 ft | 23 kts | 83° |
| 2026-04-23 21:53 | 33.94068 | -118.38131 | 125 ft | 16 kts | 83° |
| 2026-04-23 21:53 | 33.94063 | -118.38014 | 123 ft | 13 kts | 134° |
| 2026-04-23 21:53 | 33.93988 | -118.38020 | 124 ft | 11 kts | 239° |
| 2026-04-23 21:53 | 33.93975 | -118.38128 | 126 ft | 23 kts | 264° |
| 2026-04-23 21:54 | 33.93924 | -118.38614 | 124 ft | 92 kts | 263° |
| 2026-04-23 21:54 | 33.93820 | -118.39617 | 125 ft | 147 kts | 263° |
| 2026-04-23 21:54 | 33.93684 | -118.40978 | 366 ft | 170 kts | 261° |
| 2026-04-23 21:54 | 33.93532 | -118.42384 | 1131 ft | 168 kts | 260° |
| 2026-04-23 21:55 | 33.93383 | -118.43789 | 1891 ft | 172 kts | 263° |
| 2026-04-23 21:55 | 33.93185 | -118.45267 | 2228 ft | 188 kts | 254° |
| 2026-04-23 21:55 | 33.92583 | -118.46762 | 2379 ft | 211 kts | 234° |
| 2026-04-23 21:55 | 33.91618 | -118.48231 | 2537 ft | 236 kts | 231° |
| 2026-04-23 21:56 | 33.90543 | -118.49849 | 2804 ft | 258 kts | 230° |
| 2026-04-23 21:56 | 33.89370 | -118.51545 | 3323 ft | 268 kts | 229° |
| 2026-04-23 21:56 | 33.88136 | -118.53251 | 3961 ft | 273 kts | 223° |
| 2026-04-23 21:56 | 33.86544 | -118.54496 | 4566 ft | 277 kts | 198° |
| 2026-04-23 21:57 | 33.84653 | -118.54826 | 5182 ft | 277 kts | 173° |
| 2026-04-23 21:57 | 33.82733 | -118.54502 | 5821 ft | 281 kts | 171° |
| 2026-04-23 21:57 | 33.80787 | -118.54138 | 6425 ft | 286 kts | 170° |
| 2026-04-23 21:57 | 33.78815 | -118.53765 | 7041 ft | 289 kts | 171° |
| 2026-04-23 21:58 | 33.76820 | -118.53392 | 7679 ft | 292 kts | 172° |
| 2026-04-23 21:58 | 33.74804 | -118.53017 | 8272 ft | 296 kts | 174° |
| 2026-04-23 21:58 | 33.72771 | -118.52582 | 8933 ft | 298 kts | 166° |
| 2026-04-23 21:58 | 33.70874 | -118.51541 | 9579 ft | 304 kts | 147° |
| 2026-04-23 21:59 | 33.69318 | -118.49785 | 10125 ft | 314 kts | 128° |
| 2026-04-23 21:59 | 33.68277 | -118.47392 | 10243 ft | 336 kts | 109° |
| 2026-04-23 21:59 | 33.67498 | -118.44668 | 10400 ft | 353 kts | 109° |
| 2026-04-23 22:00 | 33.65848 | -118.38984 | 11280 ft | 366 kts | 110° |
| 2026-04-23 22:00 | 33.65014 | -118.36069 | 11768 ft | 371 kts | 106° |
| 2026-04-23 22:00 | 33.64519 | -118.33018 | 12277 ft | 375 kts | 95° |
| 2026-04-23 22:00 | 33.64458 | -118.29868 | 12774 ft | 379 kts | 89° |
| 2026-04-23 22:01 | 33.64468 | -118.26683 | 13279 ft | 384 kts | 89° |
| 2026-04-23 22:01 | 33.64476 | -118.23465 | 13778 ft | 388 kts | 89° |
| 2026-04-23 22:01 | 33.64479 | -118.20206 | 14230 ft | 392 kts | 89° |
| 2026-04-23 22:01 | 33.64478 | -118.16917 | 14692 ft | 396 kts | 89° |
| 2026-04-23 22:02 | 33.64474 | -118.13603 | 15156 ft | 399 kts | 89° |
| 2026-04-23 22:02 | 33.64471 | -118.10260 | 15626 ft | 402 kts | 89° |
| 2026-04-23 22:02 | 33.64467 | -118.06894 | 16095 ft | 405 kts | 89° |
| 2026-04-23 22:02 | 33.64462 | -118.03545 | 16575 ft | 408 kts | 89° |
| 2026-04-23 22:03 | 33.64456 | -118.00130 | 17039 ft | 411 kts | 89° |
| 2026-04-23 22:03 | 33.64450 | -117.96689 | 17490 ft | 414 kts | 90° |
| 2026-04-23 22:03 | 33.64444 | -117.93226 | 17917 ft | 417 kts | 89° |
| 2026-04-23 22:03 | 33.64437 | -117.89729 | 18338 ft | 421 kts | 89° |
| 2026-04-23 22:04 | 33.64431 | -117.86202 | 18711 ft | 424 kts | 90° |
| 2026-04-23 22:04 | 33.64425 | -117.82661 | 19104 ft | 426 kts | 90° |
| 2026-04-23 22:04 | 33.64183 | -117.79106 | 19510 ft | 428 kts | 101° |
| 2026-04-23 22:04 | 33.63464 | -117.75645 | 19910 ft | 429 kts | 108° |
| 2026-04-23 22:05 | 33.62600 | -117.72211 | 20308 ft | 431 kts | 108° |
| 2026-04-23 22:05 | 33.61743 | -117.68755 | 20697 ft | 433 kts | 108° |
| 2026-04-23 22:05 | 33.60889 | -117.65275 | 21085 ft | 435 kts | 108° |
| 2026-04-23 22:05 | 33.60035 | -117.61785 | 21463 ft | 437 kts | 108° |
| 2026-04-23 22:06 | 33.59175 | -117.58272 | 21833 ft | 440 kts | 108° |
| 2026-04-23 22:06 | 33.58309 | -117.54746 | 22221 ft | 442 kts | 108° |
| 2026-04-23 22:06 | 33.57436 | -117.51211 | 22589 ft | 444 kts | 108° |
| 2026-04-23 22:06 | 33.56553 | -117.47652 | 22959 ft | 446 kts | 108° |
| 2026-04-23 22:07 | 33.55663 | -117.44084 | 23298 ft | 448 kts | 108° |
| 2026-04-23 22:07 | 33.54767 | -117.40495 | 23626 ft | 450 kts | 108° |
| 2026-04-23 22:07 | 33.53868 | -117.36888 | 23903 ft | 452 kts | 108° |
| 2026-04-23 22:07 | 33.52964 | -117.33268 | 24194 ft | 454 kts | 108° |
| 2026-04-23 22:08 | 33.52054 | -117.29635 | 24487 ft | 457 kts | 108° |
| 2026-04-23 22:08 | 33.51147 | -117.25978 | 24756 ft | 459 kts | 106° |
| 2026-04-23 22:08 | 33.50546 | -117.22212 | 25012 ft | 462 kts | 96° |
| 2026-04-23 22:08 | 33.50409 | -117.18354 | 25282 ft | 465 kts | 90° |
| 2026-04-23 22:09 | 33.50371 | -117.14472 | 25539 ft | 468 kts | 91° |
| 2026-04-23 22:09 | 33.50327 | -117.10561 | 25796 ft | 470 kts | 91° |
| 2026-04-23 22:09 | 33.50274 | -117.06634 | 26065 ft | 472 kts | 91° |
| 2026-04-23 22:09 | 33.50216 | -117.02684 | 26326 ft | 475 kts | 91° |
| 2026-04-23 22:10 | 33.50156 | -116.98720 | 26589 ft | 477 kts | 91° |
| 2026-04-23 22:10 | 33.50094 | -116.94737 | 26855 ft | 479 kts | 91° |
| 2026-04-23 22:10 | 33.50034 | -116.90737 | 27117 ft | 481 kts | 91° |
| 2026-04-23 22:10 | 33.49972 | -116.86714 | 27372 ft | 484 kts | 91° |
| 2026-04-23 22:11 | 33.49910 | -116.82672 | 27555 ft | 488 kts | 92° |
| 2026-04-23 22:11 | 33.49846 | -116.78596 | 27779 ft | 491 kts | 92° |
| 2026-04-23 22:11 | 33.49779 | -116.74498 | 28019 ft | 493 kts | 92° |
| 2026-04-23 22:11 | 33.49709 | -116.70382 | 28275 ft | 495 kts | 92° |
| 2026-04-23 22:12 | 33.49638 | -116.66253 | 28519 ft | 497 kts | 92° |
| 2026-04-23 22:12 | 33.49567 | -116.62101 | 28752 ft | 499 kts | 92° |
| 2026-04-23 22:12 | 33.49497 | -116.57931 | 28976 ft | 502 kts | 92° |
| 2026-04-23 22:12 | 33.49424 | -116.53746 | 29233 ft | 502 kts | 93° |
| 2026-04-23 22:13 | 33.49349 | -116.49558 | 29535 ft | 503 kts | 93° |
| 2026-04-23 22:13 | 33.49269 | -116.45358 | 29789 ft | 505 kts | 93° |
| 2026-04-23 22:13 | 33.49188 | -116.41148 | 30012 ft | 507 kts | 93° |
| 2026-04-23 22:13 | 33.49116 | -116.36973 | 30214 ft | 509 kts | 93° |
| 2026-04-23 22:14 | 33.49052 | -116.32678 | 30431 ft | 509 kts | 93° |
| 2026-04-23 22:14 | 33.48996 | -116.28493 | 30619 ft | 510 kts | 92° |
| 2026-04-23 22:14 | 33.48941 | -116.24239 | 30790 ft | 512 kts | 92° |
| 2026-04-23 22:14 | 33.48882 | -116.19962 | 30911 ft | 515 kts | 92° |
| 2026-04-23 22:15 | 33.48817 | -116.15667 | 31079 ft | 516 kts | 93° |
| 2026-04-23 22:15 | 33.48746 | -116.11373 | 31298 ft | 516 kts | 93° |
| 2026-04-23 22:15 | 33.48716 | -116.07070 | 31534 ft | 516 kts | 89° |
| 2026-04-23 22:15 | 33.49107 | -116.02796 | 31775 ft | 517 kts | 79° |
| 2026-04-23 22:16 | 33.50009 | -115.98638 | 32023 ft | 515 kts | 70° |
| 2026-04-23 22:16 | 33.51202 | -115.94593 | 32278 ft | 515 kts | 70° |
| 2026-04-23 22:16 | 33.52397 | -115.90542 | 32440 ft | 516 kts | 70° |
| 2026-04-23 22:16 | 33.53588 | -115.86482 | 32617 ft | 517 kts | 70° |
| 2026-04-23 22:17 | 33.54775 | -115.82412 | 32846 ft | 517 kts | 70° |
| 2026-04-23 22:17 | 33.55956 | -115.78344 | 33102 ft | 516 kts | 70° |
| 2026-04-23 22:17 | 33.57131 | -115.74280 | 33343 ft | 515 kts | 70° |
| 2026-04-23 22:17 | 33.58302 | -115.70226 | 33579 ft | 515 kts | 70° |
| 2026-04-23 22:18 | 33.59473 | -115.66173 | 33816 ft | 514 kts | 70° |
| 2026-04-23 22:18 | 33.60644 | -115.62127 | 34034 ft | 513 kts | 70° |
| 2026-04-23 22:18 | 33.61798 | -115.58070 | 34184 ft | 514 kts | 74° |
| 2026-04-23 22:18 | 33.62339 | -115.53865 | 34343 ft | 510 kts | 91° |
| 2026-04-23 22:19 | 33.62331 | -115.49610 | 34462 ft | 510 kts | 94° |
| 2026-04-23 22:19 | 33.62223 | -115.45353 | 34612 ft | 511 kts | 95° |
| 2026-04-23 22:19 | 33.62050 | -115.41096 | 34768 ft | 511 kts | 96° |
| 2026-04-23 22:19 | 33.61852 | -115.36840 | 34905 ft | 511 kts | 96° |
| 2026-04-23 22:20 | 33.61555 | -115.28391 | 34942 ft | 504 kts | 95° |
| 2026-04-23 22:20 | 33.61323 | -115.19992 | 34936 ft | 503 kts | 95° |
| 2026-04-23 22:21 | 33.61185 | -115.15798 | 34749 ft | 501 kts | 95° |
| 2026-04-23 22:21 | 33.61029 | -115.11628 | 34494 ft | 501 kts | 96° |
| 2026-04-23 22:21 | 33.60863 | -115.07452 | 34259 ft | 501 kts | 96° |
| 2026-04-23 22:21 | 33.60695 | -115.03279 | 34023 ft | 501 kts | 96° |
| 2026-04-23 22:22 | 33.60528 | -114.99105 | 33733 ft | 502 kts | 96° |
| 2026-04-23 22:22 | 33.60359 | -114.94913 | 33452 ft | 504 kts | 96° |
| 2026-04-23 22:22 | 33.60193 | -114.90773 | 33192 ft | 504 kts | 96° |
| 2026-04-23 22:22 | 33.60030 | -114.86607 | 32930 ft | 495 kts | 96° |
| 2026-04-23 22:23 | 33.59870 | -114.82519 | 32666 ft | 488 kts | 96° |
| 2026-04-23 22:23 | 33.59702 | -114.78407 | 32417 ft | 499 kts | 97° |
| 2026-04-23 22:23 | 33.59245 | -114.74252 | 32163 ft | 506 kts | 107° |
| 2026-04-23 22:23 | 33.58440 | -114.70100 | 31912 ft | 513 kts | 108° |
| 2026-04-23 22:24 | 33.57627 | -114.65942 | 31663 ft | 511 kts | 108° |
| 2026-04-23 22:24 | 33.57082 | -114.63140 | 31499 ft | 511 kts | 108° |
| 2026-04-23 22:24 | 33.56279 | -114.58997 | 31248 ft | 509 kts | 108° |
| 2026-04-23 22:24 | 33.55481 | -114.54871 | 31007 ft | 508 kts | 108° |
| 2026-04-23 22:25 | 33.54681 | -114.50743 | 30595 ft | 507 kts | 107° |
| 2026-04-23 22:25 | 33.53885 | -114.46638 | 30041 ft | 505 kts | 107° |
| 2026-04-23 22:25 | 33.53097 | -114.42604 | 29459 ft | 501 kts | 107° |
| 2026-04-23 22:25 | 33.52304 | -114.38562 | 28942 ft | 496 kts | 107° |
| 2026-04-23 22:26 | 33.51516 | -114.34552 | 28399 ft | 493 kts | 107° |
| 2026-04-23 22:26 | 33.50731 | -114.30572 | 27874 ft | 488 kts | 107° |
| 2026-04-23 22:26 | 33.49950 | -114.26629 | 27347 ft | 484 kts | 106° |
| 2026-04-23 22:26 | 33.49174 | -114.22720 | 26832 ft | 480 kts | 106° |
| 2026-04-23 22:27 | 33.48394 | -114.18797 | 26311 ft | 476 kts | 106° |
| 2026-04-23 22:27 | 33.47628 | -114.14960 | 25808 ft | 471 kts | 106° |
| 2026-04-23 22:27 | 33.46869 | -114.11160 | 25311 ft | 468 kts | 105° |
| 2026-04-23 22:27 | 33.46115 | -114.07384 | 24826 ft | 464 kts | 105° |
| 2026-04-23 22:28 | 33.45373 | -114.03667 | 24685 ft | 458 kts | 105° |
| 2026-04-23 22:28 | 33.44628 | -113.99951 | 24524 ft | 458 kts | 105° |
| 2026-04-23 22:28 | 33.43881 | -113.96244 | 24349 ft | 458 kts | 105° |
| 2026-04-23 22:28 | 33.43135 | -113.92550 | 24180 ft | 456 kts | 105° |
| 2026-04-23 22:29 | 33.42395 | -113.88862 | 23990 ft | 454 kts | 104° |
| 2026-04-23 22:29 | 33.41661 | -113.85193 | 23829 ft | 453 kts | 104° |
| 2026-04-23 22:29 | 33.40936 | -113.81580 | 23661 ft | 452 kts | 104° |
| 2026-04-23 22:29 | 33.40200 | -113.77929 | 23486 ft | 451 kts | 104° |
| 2026-04-23 22:30 | 33.39466 | -113.74290 | 23301 ft | 449 kts | 104° |
| 2026-04-23 22:30 | 33.38734 | -113.70668 | 23116 ft | 447 kts | 104° |
| 2026-04-23 22:30 | 33.38004 | -113.67060 | 22949 ft | 445 kts | 104° |
| 2026-04-23 22:30 | 33.37273 | -113.63465 | 22781 ft | 444 kts | 104° |
| 2026-04-23 22:31 | 33.36544 | -113.59880 | 22604 ft | 443 kts | 105° |
| 2026-04-23 22:31 | 33.35816 | -113.56307 | 22425 ft | 441 kts | 105° |
| 2026-04-23 22:31 | 33.35088 | -113.52745 | 22250 ft | 440 kts | 105° |
| 2026-04-23 22:31 | 33.34360 | -113.49194 | 22079 ft | 439 kts | 105° |
| 2026-04-23 22:32 | 33.33634 | -113.45655 | 21894 ft | 437 kts | 104° |
| 2026-04-23 22:32 | 33.32957 | -113.42114 | 21569 ft | 436 kts | 103° |
| 2026-04-23 22:32 | 33.32340 | -113.38570 | 21283 ft | 435 kts | 102° |
| 2026-04-23 22:32 | 33.31756 | -113.35028 | 20997 ft | 433 kts | 102° |
| 2026-04-23 22:33 | 33.31184 | -113.31507 | 20713 ft | 431 kts | 102° |
| 2026-04-23 22:33 | 33.30606 | -113.28000 | 20434 ft | 429 kts | 102° |
| 2026-04-23 22:33 | 33.30015 | -113.24514 | 20154 ft | 424 kts | 102° |
| 2026-04-23 22:33 | 33.29440 | -113.21100 | 19881 ft | 414 kts | 102° |
| 2026-04-23 22:34 | 33.28925 | -113.17755 | 19615 ft | 406 kts | 101° |
| 2026-04-23 22:34 | 33.28452 | -113.14439 | 19348 ft | 403 kts | 100° |
| 2026-04-23 22:34 | 33.27998 | -113.11141 | 19095 ft | 401 kts | 100° |
| 2026-04-23 22:34 | 33.27570 | -113.07853 | 18942 ft | 400 kts | 96° |
| 2026-04-23 22:35 | 33.27494 | -113.04533 | 18692 ft | 399 kts | 87° |
| 2026-04-23 22:35 | 33.27590 | -113.01244 | 18399 ft | 393 kts | 88° |
| 2026-04-23 22:35 | 33.27674 | -112.98012 | 18112 ft | 385 kts | 88° |
| 2026-04-23 22:35 | 33.27750 | -112.94849 | 17924 ft | 377 kts | 88° |
| 2026-04-23 22:36 | 33.27824 | -112.91733 | 17658 ft | 374 kts | 88° |
| 2026-04-23 22:36 | 33.27899 | -112.88629 | 17391 ft | 372 kts | 88° |
| 2026-04-23 22:36 | 33.27972 | -112.85546 | 17158 ft | 370 kts | 88° |
| 2026-04-23 22:36 | 33.28046 | -112.82472 | 17021 ft | 369 kts | 87° |
| 2026-04-23 22:37 | 33.28204 | -112.79405 | 16689 ft | 369 kts | 84° |
| 2026-04-23 22:37 | 33.28463 | -112.76375 | 16328 ft | 365 kts | 82° |
| 2026-04-23 22:37 | 33.28773 | -112.73374 | 15976 ft | 363 kts | 82° |
| 2026-04-23 22:37 | 33.29097 | -112.70397 | 15620 ft | 360 kts | 82° |
| 2026-04-23 22:38 | 33.29414 | -112.67444 | 15277 ft | 358 kts | 82° |
| 2026-04-23 22:38 | 33.29717 | -112.64494 | 14934 ft | 357 kts | 82° |
| 2026-04-23 22:38 | 33.30004 | -112.61562 | 14585 ft | 354 kts | 83° |
| 2026-04-23 22:38 | 33.30278 | -112.58643 | 14244 ft | 352 kts | 83° |
| 2026-04-23 22:39 | 33.30545 | -112.55745 | 13902 ft | 350 kts | 83° |
| 2026-04-23 22:39 | 33.30808 | -112.52865 | 13544 ft | 347 kts | 83° |
| 2026-04-23 22:39 | 33.31069 | -112.50006 | 13194 ft | 345 kts | 83° |
| 2026-04-23 22:39 | 33.31331 | -112.47164 | 12871 ft | 343 kts | 83° |
| 2026-04-23 22:40 | 33.31588 | -112.44342 | 12543 ft | 340 kts | 83° |
| 2026-04-23 22:40 | 33.31840 | -112.41549 | 12216 ft | 337 kts | 83° |
| 2026-04-23 22:40 | 33.32344 | -112.36026 | 11575 ft | 331 kts | 83° |
| 2026-04-23 22:41 | 33.32591 | -112.33297 | 11248 ft | 329 kts | 83° |
| 2026-04-23 22:41 | 33.32838 | -112.30586 | 10935 ft | 327 kts | 83° |
| 2026-04-23 22:41 | 33.33078 | -112.27946 | 10614 ft | 318 kts | 83° |
| 2026-04-23 22:41 | 33.33313 | -112.25361 | 10309 ft | 307 kts | 83° |
| 2026-04-23 22:42 | 33.33539 | -112.22866 | 10030 ft | 295 kts | 83° |
| 2026-04-23 22:42 | 33.33753 | -112.20484 | 9732 ft | 283 kts | 83° |
| 2026-04-23 22:42 | 33.33959 | -112.18190 | 9425 ft | 272 kts | 83° |
| 2026-04-23 22:42 | 33.34160 | -112.15953 | 9335 ft | 270 kts | 83° |
| 2026-04-23 22:43 | 33.34362 | -112.13727 | 9249 ft | 269 kts | 83° |
| 2026-04-23 22:43 | 33.34563 | -112.11509 | 9126 ft | 267 kts | 83° |
| 2026-04-23 22:43 | 33.34751 | -112.09309 | 9001 ft | 265 kts | 87° |
| 2026-04-23 22:43 | 33.34745 | -112.07108 | 8738 ft | 264 kts | 91° |
| 2026-04-23 22:44 | 33.34719 | -112.04929 | 8444 ft | 261 kts | 91° |
| 2026-04-23 22:44 | 33.34690 | -112.02769 | 8172 ft | 259 kts | 92° |
| 2026-04-23 22:44 | 33.34660 | -112.00628 | 7901 ft | 256 kts | 91° |
| 2026-04-23 22:44 | 33.34631 | -111.98510 | 7630 ft | 254 kts | 91° |
| 2026-04-23 22:45 | 33.34603 | -111.96406 | 7364 ft | 253 kts | 91° |
| 2026-04-23 22:45 | 33.34576 | -111.94317 | 7097 ft | 249 kts | 92° |
| 2026-04-23 22:45 | 33.34563 | -111.92302 | 6902 ft | 234 kts | 90° |
| 2026-04-23 22:45 | 33.34599 | -111.90421 | 6775 ft | 220 kts | 89° |
| 2026-04-23 22:46 | 33.34647 | -111.88621 | 6507 ft | 215 kts | 90° |
| 2026-04-23 22:46 | 33.34695 | -111.86853 | 6194 ft | 212 kts | 90° |
| 2026-04-23 22:46 | 33.34741 | -111.85091 | 5840 ft | 211 kts | 90° |
| 2026-04-23 22:46 | 33.34785 | -111.83339 | 5470 ft | 211 kts | 91° |
| 2026-04-23 22:47 | 33.34846 | -111.81590 | 5113 ft | 210 kts | 83° |
| 2026-04-23 22:47 | 33.35377 | -111.79991 | 4812 ft | 207 kts | 51° |
| 2026-04-23 22:47 | 33.36486 | -111.78929 | 4407 ft | 206 kts | 19° |
| 2026-04-23 22:47 | 33.37870 | -111.78682 | 4052 ft | 200 kts | 346° |
| 2026-04-23 22:48 | 33.39177 | -111.79157 | 4021 ft | 197 kts | 335° |
| 2026-04-23 22:48 | 33.40463 | -111.79725 | 4020 ft | 196 kts | 335° |
| 2026-04-23 22:48 | 33.41748 | -111.80291 | 3987 ft | 198 kts | 335° |
| 2026-04-23 22:48 | 33.42878 | -111.81157 | 3903 ft | 192 kts | 311° |
| 2026-04-23 22:49 | 33.43663 | -111.82408 | 3762 ft | 187 kts | 294° |
| 2026-04-23 22:49 | 33.44027 | -111.83850 | 3586 ft | 173 kts | 274° |
| 2026-04-23 22:49 | 33.44050 | -111.85240 | 3377 ft | 166 kts | 269° |
| 2026-04-23 22:49 | 33.44055 | -111.86607 | 3167 ft | 163 kts | 269° |
| 2026-04-23 22:50 | 33.44059 | -111.87946 | 2961 ft | 157 kts | 268° |
| 2026-04-23 22:50 | 33.44063 | -111.89216 | 2764 ft | 149 kts | 268° |
| 2026-04-23 22:50 | 33.44066 | -111.90432 | 2557 ft | 144 kts | 269° |
| 2026-04-23 22:50 | 33.44067 | -111.91640 | 2388 ft | 145 kts | 268° |
| 2026-04-23 22:51 | 33.44065 | -111.92855 | 2218 ft | 145 kts | 269° |
| 2026-04-23 22:51 | 33.44067 | -111.94050 | 1991 ft | 144 kts | 268° |
| 2026-04-23 22:51 | 33.44068 | -111.95254 | 1844 ft | 146 kts | 270° |
| 2026-04-23 22:51 | 33.44073 | -111.96454 | 1601 ft | 145 kts | 272° |
| 2026-04-23 22:52 | 33.44076 | -111.97698 | 1450 ft | 151 kts | 269° |
| 2026-04-23 22:52 | 33.44077 | -111.98928 | 1243 ft | 146 kts | 270° |
| 2026-04-23 22:52 | 33.44076 | -112.00103 | 1137 ft | 130 kts | 269° |
| 2026-04-23 22:52 | 33.44082 | -112.00882 | 1129 ft | 50 kts | 271° |
| 2026-04-23 22:53 | 33.44082 | -112.01003 | 1130 ft | 0 kts | 258° |
| 2026-04-23 22:53 | 33.44073 | -112.01036 | 1132 ft | 8 kts | 248° |
| 2026-04-23 22:53 | 33.44019 | -112.01086 | 1133 ft | 13 kts | 184° |
| 2026-04-23 22:53 | 33.43970 | -112.00998 | 1126 ft | 15 kts | 92° |
| 2026-04-23 22:54 | 33.43973 | -112.00872 | 1122 ft | 16 kts | 88° |
| 2026-04-23 22:54 | 33.43964 | -112.00760 | 1119 ft | 12 kts | 127° |
| 2026-04-23 22:54 | 33.43903 | -112.00691 | 1118 ft | 13 kts | 113° |
| 2026-04-23 22:54 | 33.43900 | -112.00582 | 1125 ft | 14 kts | 88° |
| 2026-04-23 22:55 | 33.43902 | -112.00465 | 1125 ft | 14 kts | 89° |
| 2026-04-23 22:55 | 33.43904 | -112.00341 | 1125 ft | 15 kts | 88° |
| 2026-04-23 22:55 | 33.43904 | -112.00213 | 1125 ft | 15 kts | 90° |
| 2026-04-23 22:55 | 33.43904 | -112.00082 | 1125 ft | 16 kts | 90° |
| 2026-04-23 22:56 | 33.43904 | -111.99949 | 1125 ft | 13 kts | 89° |
| 2026-04-23 22:56 | 33.43902 | -111.99857 | 1125 ft | 9 kts | 106° |
| 2026-04-23 22:56 | 33.43844 | -111.99827 | 1121 ft | 10 kts | 177° |
| 2026-04-23 22:56 | 33.43780 | -111.99827 | 1124 ft | 7 kts | 180° |
| 2026-04-23 22:57 | 33.43734 | -111.99831 | 1119 ft | 6 kts | 208° |
| 2026-04-23 22:57 | 33.43724 | -111.99858 | 1118 ft | 2 kts | 259° |
| 2026-04-23 22:57 | 33.43723 | -111.99875 | 1119 ft | 0 kts | 265° |